sensor_id;sensor_type;location;lat;lon;timestamp;pressure;altitude;pressure_sealevel;temperature;humidity
55351;BME280;62194;49.480;10.986;2023-05-17T00:00:03;98551.47;;;6.56;70.65
55351;BME280;62194;49.480;10.986;2023-05-17T00:00:11;98534.88;;;6.49;70.75
55351;BME280;62194;49.480;10.986;2023-05-17T00:00:16;98553.06;;;6.57;70.98
55351;BME280;62194;49.480;10.986;2023-05-17T00:00:25;98546.22;;;6.51;70.91
55351;BME280;62194;49.480;10.986;2023-05-17T00:00:30;98539.78;;;6.47;70.98
55351;BME280;62194;49.480;10.986;2023-05-17T00:00:35;98553.41;;;6.55;70.81
55351;BME280;62194;49.480;10.986;2023-05-17T00:00:41;98550.19;;;6.53;70.78
55351;BME280;62194;49.480;10.986;2023-05-17T00:00:46;98552.78;;;6.59;70.89
55351;BME280;62194;49.480;10.986;2023-05-17T00:00:51;98519.88;;;6.43;71.10
55351;BME280;62194;49.480;10.986;2023-05-17T00:00:57;98534.09;;;6.48;70.66
55351;BME280;62194;49.480;10.986;2023-05-17T00:01:02;98549.91;;;6.55;70.85
55351;BME280;62194;49.480;10.986;2023-05-17T00:01:07;98545.59;;;6.54;70.83
55351;BME280;62194;49.480;10.986;2023-05-17T00:01:13;98543.50;;;6.51;70.67
55351;BME280;62194;49.480;10.986;2023-05-17T00:01:18;98540.78;;;6.51;70.94
55351;BME280;62194;49.480;10.986;2023-05-17T00:01:24;98551.19;;;6.57;70.94
55351;BME280;62194;49.480;10.986;2023-05-17T00:01:29;98554.53;;;6.54;70.95
55351;BME280;62194;49.480;10.986;2023-05-17T00:01:34;98552.59;;;6.55;70.82
55351;BME280;62194;49.480;10.986;2023-05-17T00:01:39;98551.94;;;6.49;70.98
55351;BME280;62194;49.480;10.986;2023-05-17T00:01:45;98553.72;;;6.54;71.00
55351;BME280;62194;49.480;10.986;2023-05-17T00:01:50;98543.50;;;6.51;71.19
55351;BME280;62194;49.480;10.986;2023-05-17T00:01:56;98550.69;;;6.55;71.19
55351;BME280;62194;49.480;10.986;2023-05-17T00:02:01;98557.22;;;6.54;71.26
55351;BME280;62194;49.480;10.986;2023-05-17T00:02:07;98543.44;;;6.42;71.32
55351;BME280;62194;49.480;10.986;2023-05-17T00:02:12;98555.31;;;6.55;71.22
55351;BME280;62194;49.480;10.986;2023-05-17T00:02:17;98553.22;;;6.52;70.83
55351;BME280;62194;49.480;10.986;2023-05-17T00:02:22;98552.44;;;6.51;70.65
55351;BME280;62194;49.480;10.986;2023-05-17T00:02:28;98538.53;;;6.44;70.79
55351;BME280;62194;49.480;10.986;2023-05-17T00:02:33;98552.88;;;6.45;70.62
55351;BME280;62194;49.480;10.986;2023-05-17T00:02:38;98540.22;;;6.40;70.35
55351;BME280;62194;49.480;10.986;2023-05-17T00:02:43;98548.06;;;6.42;70.46
55351;BME280;62194;49.480;10.986;2023-05-17T00:02:49;98555.25;;;6.46;70.48
55351;BME280;62194;49.480;10.986;2023-05-17T00:02:54;98558.94;;;6.50;70.67
55351;BME280;62194;49.480;10.986;2023-05-17T00:03:00;98533.56;;;6.38;70.54
55351;BME280;62194;49.480;10.986;2023-05-17T00:03:05;98502.00;;;6.10;70.51
55351;BME280;62194;49.480;10.986;2023-05-17T00:03:10;98550.94;;;6.45;70.73
55351;BME280;62194;49.480;10.986;2023-05-17T00:03:16;98536.56;;;6.36;70.86
55351;BME280;62194;49.480;10.986;2023-05-17T00:03:21;98560.19;;;6.44;70.86
55351;BME280;62194;49.480;10.986;2023-05-17T00:03:26;98535.75;;;6.36;71.05
55351;BME280;62194;49.480;10.986;2023-05-17T00:03:31;98554.97;;;6.48;71.07
55351;BME280;62194;49.480;10.986;2023-05-17T00:03:37;98528.06;;;6.29;70.94
55351;BME280;62194;49.480;10.986;2023-05-17T00:03:42;98534.34;;;6.38;71.29
55351;BME280;62194;49.480;10.986;2023-05-17T00:03:47;98538.81;;;6.43;70.97
55351;BME280;62194;49.480;10.986;2023-05-17T00:03:52;98548.59;;;6.52;71.04
55351;BME280;62194;49.480;10.986;2023-05-17T00:04:00;98559.16;;;6.63;70.82
55351;BME280;62194;49.480;10.986;2023-05-17T00:04:05;98554.38;;;6.60;70.57
55351;BME280;62194;49.480;10.986;2023-05-17T00:04:11;98516.00;;;6.35;70.80
55351;BME280;62194;49.480;10.986;2023-05-17T00:04:16;98551.47;;;6.56;70.77
55351;BME280;62194;49.480;10.986;2023-05-17T00:04:21;98516.00;;;6.35;70.71
55351;BME280;62194;49.480;10.986;2023-05-17T00:04:27;98543.97;;;6.53;70.80
55351;BME280;62194;49.480;10.986;2023-05-17T00:04:32;98523.00;;;6.36;70.78
55351;BME280;62194;49.480;10.986;2023-05-17T00:04:37;98526.34;;;6.33;71.03
55351;BME280;62194;49.480;10.986;2023-05-17T00:04:43;98547.44;;;6.45;71.04
55351;BME280;62194;49.480;10.986;2023-05-17T00:04:49;98551.63;;;6.51;71.26
55351;BME280;62194;49.480;10.986;2023-05-17T00:04:54;98552.25;;;6.48;71.07
55351;BME280;62194;49.480;10.986;2023-05-17T00:05:00;98545.53;;;6.45;71.41
55351;BME280;62194;49.480;10.986;2023-05-17T00:05:05;98556.03;;;6.47;71.27
55351;BME280;62194;49.480;10.986;2023-05-17T00:05:11;98550.94;;;6.45;71.25
55351;BME280;62194;49.480;10.986;2023-05-17T00:05:16;98548.69;;;6.39;71.49
55351;BME280;62194;49.480;10.986;2023-05-17T00:05:21;98554.97;;;6.48;71.38
55351;BME280;62194;49.480;10.986;2023-05-17T00:05:27;98545.00;;;6.35;71.40
55351;BME280;62194;49.480;10.986;2023-05-17T00:05:32;98523.88;;;6.23;71.76
55351;BME280;62194;49.480;10.986;2023-05-17T00:05:37;98557.50;;;6.44;71.92
55351;BME280;62194;49.480;10.986;2023-05-17T00:05:43;98520.38;;;6.22;71.68
55351;BME280;62194;49.480;10.986;2023-05-17T00:05:48;98553.78;;;6.40;71.64
55351;BME280;62194;49.480;10.986;2023-05-17T00:05:53;98557.00;;;6.42;71.83
55351;BME280;62194;49.480;10.986;2023-05-17T00:05:59;98550.88;;;6.37;71.67
55351;BME280;62194;49.480;10.986;2023-05-17T00:06:04;98547.38;;;6.36;71.85
55351;BME280;62194;49.480;10.986;2023-05-17T00:06:09;98526.28;;;6.24;71.44
55351;BME280;62194;49.480;10.986;2023-05-17T00:06:15;98534.91;;;6.26;71.38
55351;BME280;62194;49.480;10.986;2023-05-17T00:06:20;98556.31;;;6.37;71.55
55351;BME280;62194;49.480;10.986;2023-05-17T00:06:25;98558.41;;;6.40;71.69
55351;BME280;62194;49.480;10.986;2023-05-17T00:06:30;98550.41;;;6.35;71.73
55351;BME280;62194;49.480;10.986;2023-05-17T00:06:36;98550.88;;;6.37;71.74
55351;BME280;62194;49.480;10.986;2023-05-17T00:06:42;98549.59;;;6.34;71.65
55351;BME280;62194;49.480;10.986;2023-05-17T00:06:47;98560.81;;;6.41;71.59
55351;BME280;62194;49.480;10.986;2023-05-17T00:06:53;98529.13;;;6.19;71.83
55351;BME280;62194;49.480;10.986;2023-05-17T00:06:58;98550.88;;;6.37;71.72
55351;BME280;62194;49.480;10.986;2023-05-17T00:07:03;98560.63;;;6.38;71.63
55351;BME280;62194;49.480;10.986;2023-05-17T00:07:09;98525.13;;;6.17;71.63
55351;BME280;62194;49.480;10.986;2023-05-17T00:07:14;98548.00;;;6.33;71.90
55351;BME280;62194;49.480;10.986;2023-05-17T00:07:20;98537.59;;;6.26;71.90
55351;BME280;62194;49.480;10.986;2023-05-17T00:07:25;98550.72;;;6.33;72.08
55351;BME280;62194;49.480;10.986;2023-05-17T00:07:30;98557.44;;;6.36;71.94
55351;BME280;62194;49.480;10.986;2023-05-17T00:07:36;98563.81;;;6.40;71.93
55351;BME280;62194;49.480;10.986;2023-05-17T00:07:41;98548.50;;;6.35;71.62
55351;BME280;62194;49.480;10.986;2023-05-17T00:07:46;98554.41;;;6.37;71.43
55351;BME280;62194;49.480;10.986;2023-05-17T00:07:52;98521.78;;;6.20;71.64
55351;BME280;62194;49.480;10.986;2023-05-17T00:07:57;98545.00;;;6.35;71.47
55351;BME280;62194;49.480;10.986;2023-05-17T00:08:03;98557.28;;;6.41;71.64
55351;BME280;62194;49.480;10.986;2023-05-17T00:08:08;98560.00;;;6.41;71.72
55351;BME280;62194;49.480;10.986;2023-05-17T00:08:13;98547.81;;;6.29;71.60
55351;BME280;62194;49.480;10.986;2023-05-17T00:08:19;98559.81;;;6.37;71.52
55351;BME280;62194;49.480;10.986;2023-05-17T00:08:24;98551.50;;;6.33;71.67
55351;BME280;62194;49.480;10.986;2023-05-17T00:08:29;98537.59;;;6.26;71.64
55351;BME280;62194;49.480;10.986;2023-05-17T00:08:35;98559.38;;;6.44;71.97
55351;BME280;62194;49.480;10.986;2023-05-17T00:08:41;98530.16;;;6.32;71.85
55351;BME280;62194;49.480;10.986;2023-05-17T00:08:46;98563.09;;;6.48;71.67
55351;BME280;62194;49.480;10.986;2023-05-17T00:08:51;98555.88;;;6.43;71.51
55351;BME280;62194;49.480;10.986;2023-05-17T00:08:56;98557.16;;;6.46;71.51
55351;BME280;62194;49.480;10.986;2023-05-17T00:09:02;98528.97;;;6.24;71.64
55351;BME280;62194;49.480;10.986;2023-05-17T00:09:08;98542.94;;;6.40;71.64
55351;BME280;62194;49.480;10.986;2023-05-17T00:09:13;98520.38;;;6.22;71.77
55351;BME280;62194;49.480;10.986;2023-05-17T00:09:18;98551.25;;;6.44;71.69
55351;BME280;62194;49.480;10.986;2023-05-17T00:09:23;98523.28;;;6.26;71.71
55351;BME280;62194;49.480;10.986;2023-05-17T00:09:29;98558.75;;;6.47;71.66
55351;BME280;62194;49.480;10.986;2023-05-17T00:09:34;98544.19;;;6.34;71.69
55351;BME280;62194;49.480;10.986;2023-05-17T00:09:40;98556.47;;;6.40;71.60
55351;BME280;62194;49.480;10.986;2023-05-17T00:09:45;98546.28;;;6.37;71.32
55351;BME280;62194;49.480;10.986;2023-05-17T00:09:50;98560.19;;;6.44;71.64
55351;BME280;62194;49.480;10.986;2023-05-17T00:09:56;98557.16;;;6.46;71.33
55351;BME280;62194;49.480;10.986;2023-05-17T00:10:01;98558.75;;;6.47;71.46
55351;BME280;62194;49.480;10.986;2023-05-17T00:10:07;98560.66;;;6.46;71.23
55351;BME280;62194;49.480;10.986;2023-05-17T00:10:12;98556.38;;;6.45;71.43
55351;BME280;62194;49.480;10.986;2023-05-17T00:10:18;98536.38;;;6.32;71.36
55351;BME280;62194;49.480;10.986;2023-05-17T00:10:23;98533.84;;;6.36;71.24
55351;BME280;62194;49.480;10.986;2023-05-17T00:10:28;98553.47;;;6.42;71.27
55351;BME280;62194;49.480;10.986;2023-05-17T00:10:34;98552.19;;;6.39;71.29
55351;BME280;62194;49.480;10.986;2023-05-17T00:10:39;98547.88;;;6.38;71.54
55351;BME280;62194;49.480;10.986;2023-05-17T00:10:44;98543.56;;;6.37;71.73
55351;BME280;62194;49.480;10.986;2023-05-17T00:10:49;98543.88;;;6.36;71.49
55351;BME280;62194;49.480;10.986;2023-05-17T00:10:55;98532.00;;;6.23;71.53
55351;BME280;62194;49.480;10.986;2023-05-17T00:11:00;98551.50;;;6.33;71.56
55351;BME280;62194;49.480;10.986;2023-05-17T00:11:05;98555.50;;;6.36;71.73
55351;BME280;62194;49.480;10.986;2023-05-17T00:11:10;98553.31;;;6.38;71.81
55351;BME280;62194;49.480;10.986;2023-05-17T00:11:16;98553.91;;;6.35;71.67
55351;BME280;62194;49.480;10.986;2023-05-17T00:11:21;98554.09;;;6.39;71.78
55351;BME280;62194;49.480;10.986;2023-05-17T00:11:26;98518.28;;;6.19;71.87
55351;BME280;62194;49.480;10.986;2023-05-17T00:11:32;98552.53;;;6.46;71.62
55351;BME280;62194;49.480;10.986;2023-05-17T00:11:37;98518.47;;;6.23;71.61
55351;BME280;62194;49.480;10.986;2023-05-17T00:11:42;98555.44;;;6.50;71.58
55351;BME280;62194;49.480;10.986;2023-05-17T00:11:48;98527.94;;;6.34;71.54
55351;BME280;62194;49.480;10.986;2023-05-17T00:11:53;98542.31;;;6.43;71.25
55351;BME280;62194;49.480;10.986;2023-05-17T00:11:58;98555.94;;;6.52;71.11
55351;BME280;62194;49.480;10.986;2023-05-17T00:12:04;98544.75;;;6.45;71.00
55351;BME280;62194;49.480;10.986;2023-05-17T00:12:09;98525.72;;;6.36;71.08
55351;BME280;62194;49.480;10.986;2023-05-17T00:12:14;98542.31;;;6.43;71.09
55351;BME280;62194;49.480;10.986;2023-05-17T00:12:20;98550.63;;;6.47;71.14
55351;BME280;62194;49.480;10.986;2023-05-17T00:12:25;98550.34;;;6.48;71.16
55351;BME280;62194;49.480;10.986;2023-05-17T00:12:30;98559.56;;;6.47;71.19
55351;BME280;62194;49.480;10.986;2023-05-17T00:12:35;98544.84;;;6.40;71.17
55351;BME280;62194;49.480;10.986;2023-05-17T00:12:41;98551.25;;;6.44;71.33
55351;BME280;62194;49.480;10.986;2023-05-17T00:12:46;98556.66;;;6.44;71.38
55351;BME280;62194;49.480;10.986;2023-05-17T00:12:51;98553.47;;;6.42;71.28
55351;BME280;62194;49.480;10.986;2023-05-17T00:12:56;98548.69;;;6.39;71.16
55351;BME280;62194;49.480;10.986;2023-05-17T00:13:02;98552.19;;;6.39;71.40
55351;BME280;62194;49.480;10.986;2023-05-17T00:13:08;98545.78;;;6.35;71.72
55351;BME280;62194;49.480;10.986;2023-05-17T00:13:13;98554.91;;;6.39;71.49
55351;BME280;62194;49.480;10.986;2023-05-17T00:13:18;98552.81;;;6.36;71.56
55351;BME280;62194;49.480;10.986;2023-05-17T00:13:23;98551.50;;;6.33;71.51
55351;BME280;62194;49.480;10.986;2023-05-17T00:13:29;98559.81;;;6.37;71.51
55351;BME280;62194;49.480;10.986;2023-05-17T00:13:34;98546.09;;;6.33;71.60
55351;BME280;62194;49.480;10.986;2023-05-17T00:13:39;98548.50;;;6.35;71.58
55351;BME280;62194;49.480;10.986;2023-05-17T00:13:46;98543.03;;;6.26;71.68
55351;BME280;62194;49.480;10.986;2023-05-17T00:13:51;98557.44;;;6.36;71.85
55351;BME280;62194;49.480;10.986;2023-05-17T00:13:56;98554.53;;;6.32;72.08
55351;BME280;62194;49.480;10.986;2023-05-17T00:14:02;98560.13;;;6.36;72.31
55351;BME280;62194;49.480;10.986;2023-05-17T00:14:07;98543.38;;;6.33;71.84
55351;BME280;62194;49.480;10.986;2023-05-17T00:14:12;98554.22;;;6.33;72.16
55351;BME280;62194;49.480;10.986;2023-05-17T00:14:17;98552.63;;;6.32;72.18
55351;BME280;62194;49.480;10.986;2023-05-17T00:14:23;98550.72;;;6.33;72.24
55351;BME280;62194;49.480;10.986;2023-05-17T00:14:28;98540.63;;;6.25;71.95
55351;BME280;62194;49.480;10.986;2023-05-17T00:14:33;98541.63;;;6.29;71.92
55351;BME280;62194;49.480;10.986;2023-05-17T00:14:39;98556.63;;;6.35;71.68
55351;BME280;62194;49.480;10.986;2023-05-17T00:14:45;98553.25;;;6.29;71.70
55351;BME280;62194;49.480;10.986;2023-05-17T00:14:50;98554.22;;;6.33;71.83
55351;BME280;62194;49.480;10.986;2023-05-17T00:14:55;98555.84;;;6.35;71.84
55351;BME280;62194;49.480;10.986;2023-05-17T00:15:00;98519.84;;;6.12;71.94
55351;BME280;62194;49.480;10.986;2023-05-17T00:15:06;98543.53;;;6.28;71.97
55351;BME280;62194;49.480;10.986;2023-05-17T00:15:11;98558.22;;;6.36;71.79
55351;BME280;62194;49.480;10.986;2023-05-17T00:15:18;98556.63;;;6.35;71.62
55351;BME280;62194;49.480;10.986;2023-05-17T00:15:24;98556.44;;;6.31;71.79
55351;BME280;62194;49.480;10.986;2023-05-17T00:15:29;98501.44;;;6.00;71.80
55351;BME280;62194;49.480;10.986;2023-05-17T00:15:34;98547.03;;;6.29;71.98
55351;BME280;62194;49.480;10.986;2023-05-17T00:15:40;98545.91;;;6.30;71.97
55351;BME280;62194;49.480;10.986;2023-05-17T00:15:45;98549.41;;;6.30;71.91
55351;BME280;62194;49.480;10.986;2023-05-17T00:15:50;98550.84;;;6.28;71.89
55351;BME280;62194;49.480;10.986;2023-05-17T00:15:56;98533.44;;;6.20;71.82
55351;BME280;62194;49.480;10.986;2023-05-17T00:16:01;98520.94;;;6.10;71.80
55351;BME280;62194;49.480;10.986;2023-05-17T00:16:07;98546.84;;;6.25;72.01
55351;BME280;62194;49.480;10.986;2023-05-17T00:16:12;98557.53;;;6.30;71.99
55351;BME280;62194;49.480;10.986;2023-05-17T00:16:17;98553.56;;;6.28;72.07
55351;BME280;62194;49.480;10.986;2023-05-17T00:16:23;98554.00;;;6.21;71.99
55351;BME280;62194;49.480;10.986;2023-05-17T00:16:28;98557.69;;;6.25;71.87
55351;BME280;62194;49.480;10.986;2023-05-17T00:16:33;98552.09;;;6.22;71.96
55351;BME280;62194;49.480;10.986;2023-05-17T00:16:38;98555.28;;;6.24;71.97
55351;BME280;62194;49.480;10.986;2023-05-17T00:16:44;98560.38;;;6.25;72.09
55351;BME280;62194;49.480;10.986;2023-05-17T00:16:49;98561.38;;;6.29;72.32
55351;BME280;62194;49.480;10.986;2023-05-17T00:16:56;98514.66;;;6.01;72.39
55351;BME280;62194;49.480;10.986;2023-05-17T00:17:01;98552.63;;;6.32;72.34
55351;BME280;62194;49.480;10.986;2023-05-17T00:17:07;98544.19;;;6.34;71.89
55351;BME280;62194;49.480;10.986;2023-05-17T00:17:12;98524.22;;;6.21;71.77
55351;BME280;62194;49.480;10.986;2023-05-17T00:17:17;98546.94;;;6.43;71.65
55351;BME280;62194;49.480;10.986;2023-05-17T00:17:22;98552.72;;;6.50;71.34
55351;BME280;62194;49.480;10.986;2023-05-17T00:17:28;98547.91;;;6.47;70.85
55351;BME280;62194;49.480;10.986;2023-05-17T00:17:33;98550.94;;;6.45;70.75
55351;BME280;62194;49.480;10.986;2023-05-17T00:17:41;98552.88;;;6.45;71.12
55351;BME280;62194;49.480;10.986;2023-05-17T00:17:46;98547.88;;;6.38;71.11
55351;BME280;62194;49.480;10.986;2023-05-17T00:17:51;98558.75;;;6.47;71.17
55351;BME280;62194;49.480;10.986;2023-05-17T00:17:56;98557.97;;;6.46;71.06
55351;BME280;62194;49.480;10.986;2023-05-17T00:18:02;98550.78;;;6.42;71.15
55351;BME280;62194;49.480;10.986;2023-05-17T00:18:07;98530.78;;;6.29;71.36
55351;BME280;62194;49.480;10.986;2023-05-17T00:18:12;98551.88;;;6.41;71.36
55351;BME280;62194;49.480;10.986;2023-05-17T00:18:18;98555.22;;;6.38;71.03
55351;BME280;62194;49.480;10.986;2023-05-17T00:18:23;98549.59;;;6.34;71.21
55351;BME280;62194;49.480;10.986;2023-05-17T00:18:28;98557.59;;;6.39;71.26
55351;BME280;62194;49.480;10.986;2023-05-17T00:18:33;98550.22;;;6.31;71.22
55351;BME280;62194;49.480;10.986;2023-05-17T00:18:39;98554.72;;;6.36;71.26
55351;BME280;62194;49.480;10.986;2023-05-17T00:18:44;98551.50;;;6.33;71.37
55351;BME280;62194;49.480;10.986;2023-05-17T00:18:50;98559.81;;;6.37;71.47
55351;BME280;62194;49.480;10.986;2023-05-17T00:18:55;98553.13;;;6.35;71.27
55351;BME280;62194;49.480;10.986;2023-05-17T00:19:00;98548.63;;;6.30;71.28
55351;BME280;62194;49.480;10.986;2023-05-17T00:19:05;98526.72;;;6.18;71.24
55351;BME280;62194;49.480;10.986;2023-05-17T00:19:12;98549.41;;;6.30;71.45
55351;BME280;62194;49.480;10.986;2023-05-17T00:19:17;98526.25;;;6.16;71.53
55351;BME280;62194;49.480;10.986;2023-05-17T00:19:22;98555.00;;;6.34;71.48
55351;BME280;62194;49.480;10.986;2023-05-17T00:19:28;98527.66;;;6.13;71.24
55351;BME280;62194;49.480;10.986;2023-05-17T00:19:33;98553.25;;;6.29;71.40
55351;BME280;62194;49.480;10.986;2023-05-17T00:19:38;98559.44;;;6.30;71.53
55351;BME280;62194;49.480;10.986;2023-05-17T00:19:43;98529.84;;;6.11;71.83
55351;BME280;62194;49.480;10.986;2023-05-17T00:19:49;98510.06;;;6.02;71.50
55351;BME280;62194;49.480;10.986;2023-05-17T00:19:54;98547.66;;;6.26;71.54
55351;BME280;62194;49.480;10.986;2023-05-17T00:19:59;98521.56;;;6.07;71.50
55351;BME280;62194;49.480;10.986;2023-05-17T00:20:05;98558.66;;;6.29;71.41
55351;BME280;62194;49.480;10.986;2023-05-17T00:20:11;98550.66;;;6.24;71.33
55351;BME280;62194;49.480;10.986;2023-05-17T00:20:16;98543.63;;;6.23;71.74
55351;BME280;62194;49.480;10.986;2023-05-17T00:20:21;98551.50;;;6.33;71.56
55351;BME280;62194;49.480;10.986;2023-05-17T00:20:27;98545.22;;;6.24;71.59
55351;BME280;62194;49.480;10.986;2023-05-17T00:20:32;98551.81;;;6.32;71.04
55351;BME280;62194;49.480;10.986;2023-05-17T00:20:38;98542.41;;;6.29;71.55
55351;BME280;62194;49.480;10.986;2023-05-17T00:20:43;98529.13;;;6.19;71.19
55351;BME280;62194;49.480;10.986;2023-05-17T00:20:49;98551.81;;;6.32;71.29
55351;BME280;62194;49.480;10.986;2023-05-17T00:20:54;98561.44;;;6.38;71.30
55351;BME280;62194;49.480;10.986;2023-05-17T00:20:59;98544.16;;;6.25;71.26
55351;BME280;62194;49.480;10.986;2023-05-17T00:21:05;98562.06;;;6.35;71.29
55351;BME280;62194;49.480;10.986;2023-05-17T00:21:10;98529.84;;;6.11;71.37
55351;BME280;62194;49.480;10.986;2023-05-17T00:21:15;98554.53;;;6.32;71.35
55351;BME280;62194;49.480;10.986;2023-05-17T00:21:21;98545.44;;;6.28;71.38
55351;BME280;62194;49.480;10.986;2023-05-17T00:21:26;98558.22;;;6.36;71.57
55351;BME280;62194;49.480;10.986;2023-05-17T00:21:31;98543.03;;;6.26;71.28
55351;BME280;62194;49.480;10.986;2023-05-17T00:21:36;98548.94;;;6.28;71.61
55351;BME280;62194;49.480;10.986;2023-05-17T00:21:42;98567.94;;;6.37;71.78
55351;BME280;62194;49.480;10.986;2023-05-17T00:21:47;98556.63;;;6.35;71.95
55351;BME280;62194;49.480;10.986;2023-05-17T00:21:52;98554.22;;;6.33;72.08
55351;BME280;62194;49.480;10.986;2023-05-17T00:21:58;98546.53;;;6.27;71.75
55351;BME280;62194;49.480;10.986;2023-05-17T00:22:03;98541.53;;;6.20;71.55
55351;BME280;62194;49.480;10.986;2023-05-17T00:22:08;98544.16;;;6.25;71.68
55351;BME280;62194;49.480;10.986;2023-05-17T00:22:14;98554.53;;;6.32;71.79
55351;BME280;62194;49.480;10.986;2023-05-17T00:22:19;98553.25;;;6.29;71.81
55351;BME280;62194;49.480;10.986;2023-05-17T00:22:24;98560.13;;;6.36;71.86
55351;BME280;62194;49.480;10.986;2023-05-17T00:22:30;98548.16;;;6.28;71.88
55351;BME280;62194;49.480;10.986;2023-05-17T00:22:35;98551.66;;;6.28;71.75
55351;BME280;62194;49.480;10.986;2023-05-17T00:22:41;98556.75;;;6.30;71.43
55351;BME280;62194;49.480;10.986;2023-05-17T00:22:47;98545.22;;;6.24;71.70
55351;BME280;62194;49.480;10.986;2023-05-17T00:22:52;98552.25;;;6.25;71.69
55351;BME280;62194;49.480;10.986;2023-05-17T00:22:57;98551.75;;;6.23;72.00
55351;BME280;62194;49.480;10.986;2023-05-17T00:23:03;98547.16;;;6.24;71.91
55351;BME280;62194;49.480;10.986;2023-05-17T00:23:08;98543.78;;;6.18;71.96
55351;BME280;62194;49.480;10.986;2023-05-17T00:23:13;98561.38;;;6.29;71.81
55351;BME280;62194;49.480;10.986;2023-05-17T00:23:18;98549.66;;;6.20;72.01
55351;BME280;62194;49.480;10.986;2023-05-17T00:23:24;98552.25;;;6.25;72.15
55351;BME280;62194;49.480;10.986;2023-05-17T00:23:29;98555.28;;;6.24;72.24
55351;BME280;62194;49.480;10.986;2023-05-17T00:23:34;98546.97;;;6.20;72.20
55351;BME280;62194;49.480;10.986;2023-05-17T00:23:40;98543.78;;;6.18;72.05
55351;BME280;62194;49.480;10.986;2023-05-17T00:23:45;98568.19;;;6.27;72.10
55351;BME280;62194;49.480;10.986;2023-05-17T00:23:50;98551.75;;;6.23;72.10
55351;BME280;62194;49.480;10.986;2023-05-17T00:23:55;98560.38;;;6.25;72.11
55351;BME280;62194;49.480;10.986;2023-05-17T00:24:01;98544.88;;;6.17;72.21
55351;BME280;62194;49.480;10.986;2023-05-17T00:24:06;98557.00;;;6.20;72.17
55351;BME280;62194;49.480;10.986;2023-05-17T00:24:11;98553.06;;;6.26;71.99
55351;BME280;62194;49.480;10.986;2023-05-17T00:24:17;98531.28;;;6.08;72.13
55351;BME280;62194;49.480;10.986;2023-05-17T00:24:22;98530.69;;;6.12;72.21
55351;BME280;62194;49.480;10.986;2023-05-17T00:24:27;98558.47;;;6.26;72.21
55351;BME280;62194;49.480;10.986;2023-05-17T00:24:33;98554.00;;;6.21;72.22
55351;BME280;62194;49.480;10.986;2023-05-17T00:24:38;98524.88;;;6.04;72.08
55351;BME280;62194;49.480;10.986;2023-05-17T00:24:43;98556.19;;;6.19;72.13
55351;BME280;62194;49.480;10.986;2023-05-17T00:24:48;98553.50;;;6.19;72.16
55351;BME280;62194;49.480;10.986;2023-05-17T00:24:54;98514.00;;;5.96;72.33
55351;BME280;62194;49.480;10.986;2023-05-17T00:24:59;98564.19;;;6.24;72.25
55351;BME280;62194;49.480;10.986;2023-05-17T00:25:05;98527.41;;;6.01;72.49
55351;BME280;62194;49.480;10.986;2023-05-17T00:25:10;98550.09;;;6.14;72.68
55351;BME280;62194;49.480;10.986;2023-05-17T00:25:16;98531.72;;;6.02;72.49
55351;BME280;62194;49.480;10.986;2023-05-17T00:25:21;98534.91;;;6.04;72.74
55351;BME280;62194;49.480;10.986;2023-05-17T00:25:26;98541.94;;;6.05;72.70
55351;BME280;62194;49.480;10.986;2023-05-17T00:25:31;98532.81;;;6.01;72.67
55351;BME280;62194;49.480;10.986;2023-05-17T00:25:37;98539.72;;;6.07;72.43
55351;BME280;62194;49.480;10.986;2023-05-17T00:25:42;98550.09;;;6.14;72.73
55351;BME280;62194;49.480;10.986;2023-05-17T00:25:47;98522.59;;;5.98;72.58
55351;BME280;62194;49.480;10.986;2023-05-17T00:25:52;98567.22;;;6.23;72.67
55351;BME280;62194;49.480;10.986;2023-05-17T00:25:58;98561.28;;;6.21;72.83
55351;BME280;62194;49.480;10.986;2023-05-17T00:26:03;98557.31;;;6.18;72.77
55351;BME280;62194;49.480;10.986;2023-05-17T00:26:09;98533.81;;;6.05;72.55
55351;BME280;62194;49.480;10.986;2023-05-17T00:26:14;98556.50;;;6.18;72.50
55351;BME280;62194;49.480;10.986;2023-05-17T00:26:19;98552.53;;;6.15;72.70
55351;BME280;62194;49.480;10.986;2023-05-17T00:26:24;98556.50;;;6.18;72.59
55351;BME280;62194;49.480;10.986;2023-05-17T00:26:30;98519.59;;;5.99;72.48
55351;BME280;62194;49.480;10.986;2023-05-17T00:26:35;98531.09;;;6.05;72.38
55351;BME280;62194;49.480;10.986;2023-05-17T00:26:40;98565.13;;;6.20;72.61
55351;BME280;62194;49.480;10.986;2023-05-17T00:26:46;98533.59;;;6.01;72.32
55351;BME280;62194;49.480;10.986;2023-05-17T00:26:51;98545.72;;;6.04;72.38
55351;BME280;62194;49.480;10.986;2023-05-17T00:26:56;98562.13;;;6.21;72.43
55351;BME280;62194;49.480;10.986;2023-05-17T00:27:02;98564.84;;;6.21;72.46
55351;BME280;62194;49.480;10.986;2023-05-17T00:27:07;98564.00;;;6.21;72.43
55351;BME280;62194;49.480;10.986;2023-05-17T00:27:12;98571.34;;;6.20;72.29
55351;BME280;62194;49.480;10.986;2023-05-17T00:27:18;98555.03;;;6.12;72.44
55351;BME280;62194;49.480;10.986;2023-05-17T00:27:23;98553.13;;;6.12;72.56
55351;BME280;62194;49.480;10.986;2023-05-17T00:27:28;98567.31;;;6.18;72.44
55351;BME280;62194;49.480;10.986;2023-05-17T00:27:33;98563.97;;;6.12;72.38
55351;BME280;62194;49.480;10.986;2023-05-17T00:27:39;98554.22;;;6.11;72.57
55351;BME280;62194;49.480;10.986;2023-05-17T00:27:44;98568.16;;;6.18;72.44
55351;BME280;62194;49.480;10.986;2023-05-17T00:27:50;98555.34;;;6.10;72.66
55351;BME280;62194;49.480;10.986;2023-05-17T00:27:55;98540.31;;;6.04;72.64
55351;BME280;62194;49.480;10.986;2023-05-17T00:28:01;98560.22;;;6.22;72.39
55351;BME280;62194;49.480;10.986;2023-05-17T00:28:06;98554.09;;;6.16;72.29
55351;BME280;62194;49.480;10.986;2023-05-17T00:28:11;98565.91;;;6.20;72.64
55351;BME280;62194;49.480;10.986;2023-05-17T00:28:17;98560.81;;;6.19;72.70
55351;BME280;62194;49.480;10.986;2023-05-17T00:28:22;98545.56;;;6.00;72.68
55351;BME280;62194;49.480;10.986;2023-05-17T00:28:27;98562.72;;;6.18;72.79
55351;BME280;62194;49.480;10.986;2023-05-17T00:28:33;98559.03;;;6.14;72.71